sensor_id;sensor_type;location;lat;lon;timestamp;P1;durP1;ratioP1;P2;durP2;ratioP2
59728;SDS011;45588;51.598;5.618;2022-09-28T00:00:22;16.63;;;15.02;;
59728;SDS011;45588;51.598;5.618;2022-09-28T00:02:48;9.70;;;7.05;;
59728;SDS011;45588;51.598;5.618;2022-09-28T00:05:13;9.18;;;7.00;;
59728;SDS011;45588;51.598;5.618;2022-09-28T00:07:39;17.23;;;15.63;;
59728;SDS011;45588;51.598;5.618;2022-09-28T00:10:05;10.50;;;7.25;;
59728;SDS011;45588;51.598;5.618;2022-09-28T00:12:31;12.65;;;7.75;;
59728;SDS011;45588;51.598;5.618;2022-09-28T00:14:57;14.32;;;7.80;;
59728;SDS011;45588;51.598;5.618;2022-09-28T00:17:22;12.00;;;7.97;;
59728;SDS011;45588;51.598;5.618;2022-09-28T00:19:50;14.85;;;8.70;;
59728;SDS011;45588;51.598;5.618;2022-09-28T00:22:15;11.20;;;8.65;;
59728;SDS011;45588;51.598;5.618;2022-09-28T00:24:41;22.60;;;20.15;;
59728;SDS011;45588;51.598;5.618;2022-09-28T00:27:06;25.52;;;22.92;;
59728;SDS011;45588;51.598;5.618;2022-09-28T00:29:34;20.42;;;11.23;;
59728;SDS011;45588;51.598;5.618;2022-09-28T00:32:10;16.65;;;11.32;;
59728;SDS011;45588;51.598;5.618;2022-09-28T00:34:39;17.85;;;11.52;;
59728;SDS011;45588;51.598;5.618;2022-09-28T00:37:07;20.95;;;13.75;;
59728;SDS011;45588;51.598;5.618;2022-09-28T00:39:34;17.45;;;12.48;;
59728;SDS011;45588;51.598;5.618;2022-09-28T00:42:01;17.92;;;12.50;;
59728;SDS011;45588;51.598;5.618;2022-09-28T00:44:33;32.67;;;28.08;;
59728;SDS011;45588;51.598;5.618;2022-09-28T00:47:12;17.17;;;13.00;;
59728;SDS011;45588;51.598;5.618;2022-09-28T00:53:07;21.95;;;13.02;;
59728;SDS011;45588;51.598;5.618;2022-09-28T00:55:44;18.17;;;12.30;;
59728;SDS011;45588;51.598;5.618;2022-09-28T00:58:13;16.98;;;13.02;;
59728;SDS011;45588;51.598;5.618;2022-09-28T01:00:45;18.25;;;11.98;;
59728;SDS011;45588;51.598;5.618;2022-09-28T01:03:10;17.33;;;12.88;;
59728;SDS011;45588;51.598;5.618;2022-09-28T01:05:38;28.05;;;25.45;;
59728;SDS011;45588;51.598;5.618;2022-09-28T01:08:04;17.85;;;12.55;;
59728;SDS011;45588;51.598;5.618;2022-09-28T01:10:31;19.40;;;12.27;;
59728;SDS011;45588;51.598;5.618;2022-09-28T01:12:57;17.50;;;11.68;;
59728;SDS011;45588;51.598;5.618;2022-09-28T01:15:23;17.15;;;10.68;;
59728;SDS011;45588;51.598;5.618;2022-09-28T01:18:11;20.30;;;11.30;;
59728;SDS011;45588;51.598;5.618;2022-09-28T01:20:50;16.85;;;11.65;;
59728;SDS011;45588;51.598;5.618;2022-09-28T01:24:07;18.52;;;11.45;;
59728;SDS011;45588;51.598;5.618;2022-09-28T01:26:37;24.85;;;22.48;;
59728;SDS011;45588;51.598;5.618;2022-09-28T01:32:21;16.90;;;10.32;;
59728;SDS011;45588;51.598;5.618;2022-09-28T01:34:51;14.23;;;9.68;;
59728;SDS011;45588;51.598;5.618;2022-09-28T01:37:24;15.00;;;9.98;;
59728;SDS011;45588;51.598;5.618;2022-09-28T01:39:59;15.07;;;10.23;;
59728;SDS011;45588;51.598;5.618;2022-09-28T01:42:28;15.48;;;10.05;;
59728;SDS011;45588;51.598;5.618;2022-09-28T01:44:59;12.90;;;9.65;;
59728;SDS011;45588;51.598;5.618;2022-09-28T01:47:30;13.55;;;9.43;;
59728;SDS011;45588;51.598;5.618;2022-09-28T01:49:59;11.75;;;9.38;;
59728;SDS011;45588;51.598;5.618;2022-09-28T01:55:27;12.80;;;9.20;;
59728;SDS011;45588;51.598;5.618;2022-09-28T02:00:44;14.77;;;10.25;;
59728;SDS011;45588;51.598;5.618;2022-09-28T02:03:28;14.88;;;10.32;;
59728;SDS011;45588;51.598;5.618;2022-09-28T02:06:04;18.75;;;12.50;;
59728;SDS011;45588;51.598;5.618;2022-09-28T02:08:38;26.30;;;23.65;;
59728;SDS011;45588;51.598;5.618;2022-09-28T02:11:12;22.77;;;11.98;;
59728;SDS011;45588;51.598;5.618;2022-09-28T02:16:34;17.13;;;12.48;;
59728;SDS011;45588;51.598;5.618;2022-09-28T02:19:04;19.63;;;11.68;;
59728;SDS011;45588;51.598;5.618;2022-09-28T02:24:17;20.13;;;13.82;;
59728;SDS011;45588;51.598;5.618;2022-09-28T02:26:52;17.00;;;11.48;;
59728;SDS011;45588;51.598;5.618;2022-09-28T02:29:21;18.00;;;13.07;;
59728;SDS011;45588;51.598;5.618;2022-09-28T02:31:47;32.78;;;29.48;;
59728;SDS011;45588;51.598;5.618;2022-09-28T02:34:12;24.10;;;16.08;;
59728;SDS011;45588;51.598;5.618;2022-09-28T02:36:38;24.88;;;16.15;;
59728;SDS011;45588;51.598;5.618;2022-09-28T02:39:03;27.90;;;16.83;;
59728;SDS011;45588;51.598;5.618;2022-09-28T02:41:49;24.05;;;14.02;;
59728;SDS011;45588;51.598;5.618;2022-09-28T02:44:29;22.95;;;16.25;;
59728;SDS011;45588;51.598;5.618;2022-09-28T02:47:27;26.45;;;16.65;;
59728;SDS011;45588;51.598;5.618;2022-09-28T02:53:03;22.90;;;15.30;;
59728;SDS011;45588;51.598;5.618;2022-09-28T02:58:31;23.42;;;14.55;;
59728;SDS011;45588;51.598;5.618;2022-09-28T03:01:05;32.05;;;28.92;;
59728;SDS011;45588;51.598;5.618;2022-09-28T03:03:51;18.25;;;13.32;;
59728;SDS011;45588;51.598;5.618;2022-09-28T03:06:22;18.40;;;12.52;;
59728;SDS011;45588;51.598;5.618;2022-09-28T03:09:00;23.50;;;13.45;;
59728;SDS011;45588;51.598;5.618;2022-09-28T03:11:29;20.90;;;14.15;;
59728;SDS011;45588;51.598;5.618;2022-09-28T03:14:00;19.60;;;13.18;;
59728;SDS011;45588;51.598;5.618;2022-09-28T03:16:27;18.20;;;13.32;;
59728;SDS011;45588;51.598;5.618;2022-09-28T03:18:55;19.38;;;12.70;;
59728;SDS011;45588;51.598;5.618;2022-09-28T03:21:21;15.88;;;12.00;;
59728;SDS011;45588;51.598;5.618;2022-09-28T03:23:46;14.93;;;11.10;;
59728;SDS011;45588;51.598;5.618;2022-09-28T03:26:12;20.52;;;12.48;;
59728;SDS011;45588;51.598;5.618;2022-09-28T03:28:38;15.90;;;10.93;;
59728;SDS011;45588;51.598;5.618;2022-09-28T03:31:04;17.10;;;10.35;;
59728;SDS011;45588;51.598;5.618;2022-09-28T03:33:29;16.23;;;10.77;;
59728;SDS011;45588;51.598;5.618;2022-09-28T03:35:54;18.40;;;10.88;;
59728;SDS011;45588;51.598;5.618;2022-09-28T03:38:20;23.30;;;20.42;;
59728;SDS011;45588;51.598;5.618;2022-09-28T03:40:52;14.38;;;9.77;;
59728;SDS011;45588;51.598;5.618;2022-09-28T03:43:21;15.80;;;10.48;;
59728;SDS011;45588;51.598;5.618;2022-09-28T03:45:54;18.10;;;9.20;;
59728;SDS011;45588;51.598;5.618;2022-09-28T03:48:25;18.85;;;9.85;;
59728;SDS011;45588;51.598;5.618;2022-09-28T03:50:57;20.83;;;17.55;;
59728;SDS011;45588;51.598;5.618;2022-09-28T03:53:24;18.95;;;17.23;;
59728;SDS011;45588;51.598;5.618;2022-09-28T03:55:50;13.13;;;8.32;;
59728;SDS011;45588;51.598;5.618;2022-09-28T03:58:20;15.30;;;9.25;;
59728;SDS011;45588;51.598;5.618;2022-09-28T04:00:46;11.23;;;7.22;;
59728;SDS011;45588;51.598;5.618;2022-09-28T04:03:13;11.10;;;6.82;;
59728;SDS011;45588;51.598;5.618;2022-09-28T04:05:38;12.45;;;7.68;;
59728;SDS011;45588;51.598;5.618;2022-09-28T04:08:04;11.68;;;7.35;;
59728;SDS011;45588;51.598;5.618;2022-09-28T04:10:29;10.30;;;6.53;;
59728;SDS011;45588;51.598;5.618;2022-09-28T04:12:55;9.15;;;6.18;;
59728;SDS011;45588;51.598;5.618;2022-09-28T04:15:22;11.02;;;5.93;;
59728;SDS011;45588;51.598;5.618;2022-09-28T04:17:48;8.30;;;5.32;;
59728;SDS011;45588;51.598;5.618;2022-09-28T04:20:13;14.90;;;6.20;;
59728;SDS011;45588;51.598;5.618;2022-09-28T04:22:39;15.85;;;11.77;;
59728;SDS011;45588;51.598;5.618;2022-09-28T04:25:04;7.18;;;5.13;;
59728;SDS011;45588;51.598;5.618;2022-09-28T04:27:30;8.57;;;6.32;;
59728;SDS011;45588;51.598;5.618;2022-09-28T04:30:14;8.00;;;5.28;;
59728;SDS011;45588;51.598;5.618;2022-09-28T04:32:39;7.68;;;5.05;;
59728;SDS011;45588;51.598;5.618;2022-09-28T04:35:05;8.52;;;5.15;;
59728;SDS011;45588;51.598;5.618;2022-09-28T04:37:31;7.70;;;4.95;;
59728;SDS011;45588;51.598;5.618;2022-09-28T04:39:57;8.02;;;4.90;;
59728;SDS011;45588;51.598;5.618;2022-09-28T04:42:23;6.45;;;4.32;;
59728;SDS011;45588;51.598;5.618;2022-09-28T04:44:48;15.27;;;9.93;;
59728;SDS011;45588;51.598;5.618;2022-09-28T04:47:13;6.75;;;4.30;;
59728;SDS011;45588;51.598;5.618;2022-09-28T04:49:39;9.88;;;4.57;;
59728;SDS011;45588;51.598;5.618;2022-09-28T04:52:04;6.57;;;5.00;;
59728;SDS011;45588;51.598;5.618;2022-09-28T04:54:30;6.00;;;3.58;;
59728;SDS011;45588;51.598;5.618;2022-09-28T04:56:55;5.60;;;3.53;;
59728;SDS011;45588;51.598;5.618;2022-09-28T04:59:21;5.93;;;3.60;;
59728;SDS011;45588;51.598;5.618;2022-09-28T05:01:46;4.80;;;3.90;;
59728;SDS011;45588;51.598;5.618;2022-09-28T05:04:13;4.65;;;3.63;;
59728;SDS011;45588;51.598;5.618;2022-09-28T05:06:38;8.00;;;3.80;;
59728;SDS011;45588;51.598;5.618;2022-09-28T05:09:03;7.35;;;2.95;;
59728;SDS011;45588;51.598;5.618;2022-09-28T05:11:29;5.25;;;3.00;;
59728;SDS011;45588;51.598;5.618;2022-09-28T05:13:54;4.18;;;3.15;;
59728;SDS011;45588;51.598;5.618;2022-09-28T05:16:19;6.53;;;3.58;;
59728;SDS011;45588;51.598;5.618;2022-09-28T05:18:45;6.82;;;3.72;;
59728;SDS011;45588;51.598;5.618;2022-09-28T05:21:11;6.05;;;3.40;;
59728;SDS011;45588;51.598;5.618;2022-09-28T05:23:38;9.80;;;3.70;;
59728;SDS011;45588;51.598;5.618;2022-09-28T05:26:04;10.18;;;3.35;;
59728;SDS011;45588;51.598;5.618;2022-09-28T05:28:30;6.40;;;4.28;;
59728;SDS011;45588;51.598;5.618;2022-09-28T05:30:57;3.80;;;2.83;;
59728;SDS011;45588;51.598;5.618;2022-09-28T05:33:26;6.93;;;2.78;;
59728;SDS011;45588;51.598;5.618;2022-09-28T05:35:52;3.70;;;2.90;;
59728;SDS011;45588;51.598;5.618;2022-09-28T05:38:17;7.15;;;6.28;;
59728;SDS011;45588;51.598;5.618;2022-09-28T05:40:43;5.85;;;2.80;;
59728;SDS011;45588;51.598;5.618;2022-09-28T05:43:08;3.17;;;2.55;;
59728;SDS011;45588;51.598;5.618;2022-09-28T05:45:33;8.20;;;3.10;;
59728;SDS011;45588;51.598;5.618;2022-09-28T05:47:59;4.18;;;2.53;;
59728;SDS011;45588;51.598;5.618;2022-09-28T05:50:24;8.60;;;6.10;;
59728;SDS011;45588;51.598;5.618;2022-09-28T05:52:56;3.85;;;2.67;;
59728;SDS011;45588;51.598;5.618;2022-09-28T05:55:29;8.68;;;2.90;;
59728;SDS011;45588;51.598;5.618;2022-09-28T05:57:58;3.17;;;2.65;;
59728;SDS011;45588;51.598;5.618;2022-09-28T06:00:25;2.67;;;2.33;;
59728;SDS011;45588;51.598;5.618;2022-09-28T06:03:01;2.75;;;2.55;;
59728;SDS011;45588;51.598;5.618;2022-09-28T06:05:28;4.65;;;2.70;;
59728;SDS011;45588;51.598;5.618;2022-09-28T06:07:55;4.03;;;2.95;;
59728;SDS011;45588;51.598;5.618;2022-09-28T06:10:21;6.28;;;2.60;;
59728;SDS011;45588;51.598;5.618;2022-09-28T06:12:50;8.15;;;2.40;;
59728;SDS011;45588;51.598;5.618;2022-09-28T06:15:16;7.28;;;5.28;;
59728;SDS011;45588;51.598;5.618;2022-09-28T06:17:42;6.82;;;2.85;;
59728;SDS011;45588;51.598;5.618;2022-09-28T06:20:08;8.00;;;2.35;;
59728;SDS011;45588;51.598;5.618;2022-09-28T06:22:34;6.55;;;2.45;;
59728;SDS011;45588;51.598;5.618;2022-09-28T06:24:59;5.32;;;2.08;;
59728;SDS011;45588;51.598;5.618;2022-09-28T06:27:24;3.42;;;2.30;;
59728;SDS011;45588;51.598;5.618;2022-09-28T06:29:49;7.22;;;2.55;;
59728;SDS011;45588;51.598;5.618;2022-09-28T06:32:15;3.15;;;2.67;;
59728;SDS011;45588;51.598;5.618;2022-09-28T06:34:40;7.47;;;3.17;;
59728;SDS011;45588;51.598;5.618;2022-09-28T06:37:06;5.57;;;2.42;;
59728;SDS011;45588;51.598;5.618;2022-09-28T06:39:32;3.60;;;2.58;;
59728;SDS011;45588;51.598;5.618;2022-09-28T06:41:57;3.78;;;2.50;;
59728;SDS011;45588;51.598;5.618;2022-09-28T06:44:27;3.50;;;2.50;;
59728;SDS011;45588;51.598;5.618;2022-09-28T06:46:53;5.38;;;2.63;;
59728;SDS011;45588;51.598;5.618;2022-09-28T06:49:19;8.07;;;2.80;;
59728;SDS011;45588;51.598;5.618;2022-09-28T06:51:46;2.78;;;2.40;;
59728;SDS011;45588;51.598;5.618;2022-09-28T06:54:11;9.57;;;3.78;;
59728;SDS011;45588;51.598;5.618;2022-09-28T06:56:36;9.35;;;5.97;;
59728;SDS011;45588;51.598;5.618;2022-09-28T06:59:02;3.70;;;3.22;;
59728;SDS011;45588;51.598;5.618;2022-09-28T07:01:27;7.60;;;3.65;;
59728;SDS011;45588;51.598;5.618;2022-09-28T07:03:52;3.78;;;3.40;;
59728;SDS011;45588;51.598;5.618;2022-09-28T07:06:19;4.38;;;3.30;;
59728;SDS011;45588;51.598;5.618;2022-09-28T07:08:48;5.40;;;3.75;;
59728;SDS011;45588;51.598;5.618;2022-09-28T07:11:13;6.95;;;4.03;;
59728;SDS011;45588;51.598;5.618;2022-09-28T07:13:39;5.38;;;4.68;;
59728;SDS011;45588;51.598;5.618;2022-09-28T07:16:04;5.97;;;5.00;;
59728;SDS011;45588;51.598;5.618;2022-09-28T07:18:30;8.13;;;7.15;;
59728;SDS011;45588;51.598;5.618;2022-09-28T07:20:55;7.78;;;6.57;;
59728;SDS011;45588;51.598;5.618;2022-09-28T07:23:24;5.13;;;3.83;;
59728;SDS011;45588;51.598;5.618;2022-09-28T07:25:53;10.13;;;5.72;;
59728;SDS011;45588;51.598;5.618;2022-09-28T07:28:18;7.90;;;5.90;;
59728;SDS011;45588;51.598;5.618;2022-09-28T07:30:45;6.07;;;3.80;;
59728;SDS011;45588;51.598;5.618;2022-09-28T07:33:11;4.68;;;3.38;;
59728;SDS011;45588;51.598;5.618;2022-09-28T07:35:38;9.25;;;4.78;;
59728;SDS011;45588;51.598;5.618;2022-09-28T07:38:06;6.20;;;3.30;;
59728;SDS011;45588;51.598;5.618;2022-09-28T07:40:32;3.75;;;3.40;;
59728;SDS011;45588;51.598;5.618;2022-09-28T07:43:17;9.25;;;6.03;;
59728;SDS011;45588;51.598;5.618;2022-09-28T07:45:47;6.28;;;5.53;;
59728;SDS011;45588;51.598;5.618;2022-09-28T07:48:14;10.55;;;3.88;;
59728;SDS011;45588;51.598;5.618;2022-09-28T07:50:40;3.83;;;3.38;;
59728;SDS011;45588;51.598;5.618;2022-09-28T07:53:06;7.82;;;5.53;;
59728;SDS011;45588;51.598;5.618;2022-09-28T07:55:32;4.40;;;4.00;;
59728;SDS011;45588;51.598;5.618;2022-09-28T07:57:58;9.02;;;6.85;;
59728;SDS011;45588;51.598;5.618;2022-09-28T08:00:25;6.57;;;5.68;;
59728;SDS011;45588;51.598;5.618;2022-09-28T08:02:51;8.18;;;6.00;;
59728;SDS011;45588;51.598;5.618;2022-09-28T08:05:16;8.35;;;3.85;;
59728;SDS011;45588;51.598;5.618;2022-09-28T08:07:42;6.40;;;5.80;;
59728;SDS011;45588;51.598;5.618;2022-09-28T08:10:07;7.13;;;3.78;;
59728;SDS011;45588;51.598;5.618;2022-09-28T08:12:33;7.32;;;5.60;;
59728;SDS011;45588;51.598;5.618;2022-09-28T08:14:59;7.93;;;5.20;;
59728;SDS011;45588;51.598;5.618;2022-09-28T08:17:25;10.23;;;5.15;;
59728;SDS011;45588;51.598;5.618;2022-09-28T08:19:50;5.95;;;4.40;;
59728;SDS011;45588;51.598;5.618;2022-09-28T08:22:34;6.20;;;5.28;;
59728;SDS011;45588;51.598;5.618;2022-09-28T08:25:00;6.35;;;5.28;;
59728;SDS011;45588;51.598;5.618;2022-09-28T08:27:25;5.95;;;4.03;;
59728;SDS011;45588;51.598;5.618;2022-09-28T08:29:51;6.63;;;5.45;;
59728;SDS011;45588;51.598;5.618;2022-09-28T08:32:16;6.10;;;5.50;;
59728;SDS011;45588;51.598;5.618;2022-09-28T08:34:43;7.97;;;5.57;;
59728;SDS011;45588;51.598;5.618;2022-09-28T08:37:08;6.85;;;5.47;;
59728;SDS011;45588;51.598;5.618;2022-09-28T08:39:34;6.82;;;6.20;;
59728;SDS011;45588;51.598;5.618;2022-09-28T08:42:03;6.05;;;4.03;;
59728;SDS011;45588;51.598;5.618;2022-09-28T08:44:47;6.43;;;5.70;;
59728;SDS011;45588;51.598;5.618;2022-09-28T08:47:22;7.53;;;4.22;;
59728;SDS011;45588;51.598;5.618;2022-09-28T08:50:12;9.20;;;6.93;;
59728;SDS011;45588;51.598;5.618;2022-09-28T08:52:44;8.95;;;7.45;;
59728;SDS011;45588;51.598;5.618;2022-09-28T08:55:31;5.50;;;5.00;;
59728;SDS011;45588;51.598;5.618;2022-09-28T08:58:14;7.28;;;6.57;;
59728;SDS011;45588;51.598;5.618;2022-09-28T09:00:45;7.55;;;4.20;;
59728;SDS011;45588;51.598;5.618;2022-09-28T09:03:15;7.13;;;6.35;;
59728;SDS011;45588;51.598;5.618;2022-09-28T09:20:12;7.05;;;4.03;;
59728;SDS011;45588;51.598;5.618;2022-09-28T09:23:00;5.18;;;3.95;;
59728;SDS011;45588;51.598;5.618;2022-09-28T09:31:06;6.38;;;4.60;;
59728;SDS011;45588;51.598;5.618;2022-09-28T09:33:52;6.15;;;4.82;;
59728;SDS011;45588;51.598;5.618;2022-09-28T09:36:46;8.30;;;3.25;;
59728;SDS011;45588;51.598;5.618;2022-09-28T09:42:20;5.60;;;4.25;;
59728;SDS011;45588;51.598;5.618;2022-09-28T09:47:48;5.63;;;3.92;;
59728;SDS011;45588;51.598;5.618;2022-09-28T09:53:04;6.95;;;4.82;;
59728;SDS011;45588;51.598;5.618;2022-09-28T09:55:52;6.05;;;4.35;;
59728;SDS011;45588;51.598;5.618;2022-09-28T09:58:23;4.65;;;4.25;;
59728;SDS011;45588;51.598;5.618;2022-09-28T10:00:57;5.35;;;3.80;;
59728;SDS011;45588;51.598;5.618;2022-09-28T10:03:30;4.40;;;3.40;;
59728;SDS011;45588;51.598;5.618;2022-09-28T10:06:02;5.03;;;2.92;;
59728;SDS011;45588;51.598;5.618;2022-09-28T10:09:19;4.43;;;3.10;;
59728;SDS011;45588;51.598;5.618;2022-09-28T10:11:35;4.40;;;3.63;;
59728;SDS011;45588;51.598;5.618;2022-09-28T10:14:17;5.13;;;3.22;;
59728;SDS011;45588;51.598;5.618;2022-09-28T10:16:45;4.50;;;2.72;;
59728;SDS011;45588;51.598;5.618;2022-09-28T10:19:12;4.00;;;2.45;;
59728;SDS011;45588;51.598;5.618;2022-09-28T10:21:39;5.40;;;2.83;;
59728;SDS011;45588;51.598;5.618;2022-09-28T10:24:07;7.97;;;3.30;;
59728;SDS011;45588;51.598;5.618;2022-09-28T10:26:41;2.30;;;2.10;;
59728;SDS011;45588;51.598;5.618;2022-09-28T10:29:14;2.63;;;2.15;;
59728;SDS011;45588;51.598;5.618;2022-09-28T10:31:44;3.88;;;2.33;;
59728;SDS011;45588;51.598;5.618;2022-09-28T10:34:13;2.28;;;1.70;;
59728;SDS011;45588;51.598;5.618;2022-09-28T10:36:48;1.65;;;1.35;;
59728;SDS011;45588;51.598;5.618;2022-09-28T10:42:27;4.00;;;1.85;;
59728;SDS011;45588;51.598;5.618;2022-09-28T10:44:58;2.42;;;1.55;;
59728;SDS011;45588;51.598;5.618;2022-09-28T10:47:28;3.03;;;1.40;;
59728;SDS011;45588;51.598;5.618;2022-09-28T10:49:56;3.10;;;2.00;;
59728;SDS011;45588;51.598;5.618;2022-09-28T10:54:59;2.35;;;1.48;;
59728;SDS011;45588;51.598;5.618;2022-09-28T10:57:31;2.40;;;1.50;;
59728;SDS011;45588;51.598;5.618;2022-09-28T10:59:59;3.30;;;1.30;;
59728;SDS011;45588;51.598;5.618;2022-09-28T11:02:26;1.70;;;1.20;;
59728;SDS011;45588;51.598;5.618;2022-09-28T11:05:00;2.42;;;1.17;;
59728;SDS011;45588;51.598;5.618;2022-09-28T11:07:28;2.15;;;1.20;;
59728;SDS011;45588;51.598;5.618;2022-09-28T11:09:56;4.10;;;1.17;;
59728;SDS011;45588;51.598;5.618;2022-09-28T11:12:26;2.42;;;0.88;;
59728;SDS011;45588;51.598;5.618;2022-09-28T11:15:01;2.65;;;1.90;;
59728;SDS011;45588;51.598;5.618;2022-09-28T11:17:30;3.97;;;1.95;;
59728;SDS011;45588;51.598;5.618;2022-09-28T11:19:59;3.70;;;1.50;;
59728;SDS011;45588;51.598;5.618;2022-09-28T11:22:27;3.92;;;1.58;;
59728;SDS011;45588;51.598;5.618;2022-09-28T11:27:40;2.13;;;0.93;;
59728;SDS011;45588;51.598;5.618;2022-09-28T11:30:19;2.13;;;1.20;;
59728;SDS011;45588;51.598;5.618;2022-09-28T11:33:29;2.67;;;1.20;;
59728;SDS011;45588;51.598;5.618;2022-09-28T11:49:29;2.60;;;2.05;;
59728;SDS011;45588;51.598;5.618;2022-09-28T11:52:09;4.55;;;2.40;;
59728;SDS011;45588;51.598;5.618;2022-09-28T11:54:47;4.35;;;2.55;;
59728;SDS011;45588;51.598;5.618;2022-09-28T11:57:19;5.28;;;3.22;;
59728;SDS011;45588;51.598;5.618;2022-09-28T11:59:57;3.30;;;1.73;;
59728;SDS011;45588;51.598;5.618;2022-09-28T12:02:31;2.88;;;1.10;;
59728;SDS011;45588;51.598;5.618;2022-09-28T12:07:42;3.25;;;1.23;;
59728;SDS011;45588;51.598;5.618;2022-09-28T12:18:11;3.33;;;1.33;;
59728;SDS011;45588;51.598;5.618;2022-09-28T12:20:42;2.33;;;1.27;;
59728;SDS011;45588;51.598;5.618;2022-09-28T12:23:13;4.78;;;1.50;;
59728;SDS011;45588;51.598;5.618;2022-09-28T12:25:47;3.28;;;1.38;;
59728;SDS011;45588;51.598;5.618;2022-09-28T12:28:21;4.13;;;1.75;;
59728;SDS011;45588;51.598;5.618;2022-09-28T12:30:53;3.03;;;1.63;;
59728;SDS011;45588;51.598;5.618;2022-09-28T12:33:24;3.60;;;1.23;;
59728;SDS011;45588;51.598;5.618;2022-09-28T12:39:06;3.10;;;1.38;;
59728;SDS011;45588;51.598;5.618;2022-09-28T12:47:27;4.22;;;2.20;;
59728;SDS011;45588;51.598;5.618;2022-09-28T12:56:06;6.55;;;2.22;;
59728;SDS011;45588;51.598;5.618;2022-09-28T13:01:10;4.47;;;2.78;;
59728;SDS011;45588;51.598;5.618;2022-09-28T13:04:04;2.60;;;1.60;;
59728;SDS011;45588;51.598;5.618;2022-09-28T13:15:47;2.40;;;1.42;;
59728;SDS011;45588;51.598;5.618;2022-09-28T13:18:26;3.05;;;1.27;;
59728;SDS011;45588;51.598;5.618;2022-09-28T13:23:41;3.70;;;1.88;;
59728;SDS011;45588;51.598;5.618;2022-09-28T13:28:47;3.22;;;1.15;;
59728;SDS011;45588;51.598;5.618;2022-09-28T13:31:19;2.13;;;1.20;;
59728;SDS011;45588;51.598;5.618;2022-09-28T13:33:48;2.95;;;1.00;;
59728;SDS011;45588;51.598;5.618;2022-09-28T13:38:49;2.15;;;0.80;;
59728;SDS011;45588;51.598;5.618;2022-09-28T13:41:36;1.52;;;0.63;;
59728;SDS011;45588;51.598;5.618;2022-09-28T13:54:45;1.70;;;0.60;;
59728;SDS011;45588;51.598;5.618;2022-09-28T14:02:40;1.25;;;0.90;;
59728;SDS011;45588;51.598;5.618;2022-09-28T14:10:44;1.58;;;0.80;;
59728;SDS011;45588;51.598;5.618;2022-09-28T14:13:28;3.20;;;1.10;;
59728;SDS011;45588;51.598;5.618;2022-09-28T14:18:42;3.35;;;1.20;;
59728;SDS011;45588;51.598;5.618;2022-09-28T14:23:59;1.67;;;1.00;;
59728;SDS011;45588;51.598;5.618;2022-09-28T14:29:42;1.70;;;0.70;;
59728;SDS011;45588;51.598;5.618;2022-09-28T14:37:15;1.27;;;0.50;;
59728;SDS011;45588;51.598;5.618;2022-09-28T14:40:07;0.55;;;0.47;;
59728;SDS011;45588;51.598;5.618;2022-09-28T14:43:34;1.77;;;0.63;;
59728;SDS011;45588;51.598;5.618;2022-09-28T14:59:12;2.35;;;1.17;;
59728;SDS011;45588;51.598;5.618;2022-09-28T15:01:42;1.27;;;0.90;;
59728;SDS011;45588;51.598;5.618;2022-09-28T15:04:11;2.07;;;0.70;;
59728;SDS011;45588;51.598;5.618;2022-09-28T15:06:45;1.90;;;0.90;;
59728;SDS011;45588;51.598;5.618;2022-09-28T15:09:31;2.58;;;1.10;;
59728;SDS011;45588;51.598;5.618;2022-09-28T15:12:00;1.02;;;0.60;;
59728;SDS011;45588;51.598;5.618;2022-09-28T15:14:32;1.23;;;0.70;;
59728;SDS011;45588;51.598;5.618;2022-09-28T15:17:07;2.22;;;0.50;;
59728;SDS011;45588;51.598;5.618;2022-09-28T15:19:41;3.03;;;0.90;;
59728;SDS011;45588;51.598;5.618;2022-09-28T15:22:16;3.67;;;1.10;;
59728;SDS011;45588;51.598;5.618;2022-09-28T15:24:52;1.98;;;1.00;;
59728;SDS011;45588;51.598;5.618;2022-09-28T15:27:19;2.50;;;0.90;;
59728;SDS011;45588;51.598;5.618;2022-09-28T15:29:58;1.92;;;0.90;;
59728;SDS011;45588;51.598;5.618;2022-09-28T15:32:25;1.00;;;0.88;;
59728;SDS011;45588;51.598;5.618;2022-09-28T15:34:52;1.50;;;0.85;;
59728;SDS011;45588;51.598;5.618;2022-09-28T15:39:56;2.08;;;0.80;;
59728;SDS011;45588;51.598;5.618;2022-09-28T15:42:24;2.25;;;1.02;;
59728;SDS011;45588;51.598;5.618;2022-09-28T15:44:59;2.20;;;1.00;;
59728;SDS011;45588;51.598;5.618;2022-09-28T15:47:25;2.30;;;0.90;;
59728;SDS011;45588;51.598;5.618;2022-09-28T15:49:57;2.25;;;1.20;;
59728;SDS011;45588;51.598;5.618;2022-09-28T15:52:33;1.88;;;1.10;;
59728;SDS011;45588;51.598;5.618;2022-09-28T15:55:15;1.38;;;1.20;;
59728;SDS011;45588;51.598;5.618;2022-09-28T15:58:15;5.28;;;1.35;;
59728;SDS011;45588;51.598;5.618;2022-09-28T16:00:44;1.77;;;1.10;;
59728;SDS011;45588;51.598;5.618;2022-09-28T16:03:19;1.85;;;1.40;;
59728;SDS011;45588;51.598;5.618;2022-09-28T16:05:48;2.22;;;1.50;;
59728;SDS011;45588;51.598;5.618;2022-09-28T16:08:17;2.25;;;1.23;;
59728;SDS011;45588;51.598;5.618;2022-09-28T16:10:52;2.17;;;1.17;;
59728;SDS011;45588;51.598;5.618;2022-09-28T16:13:23;2.63;;;1.45;;
59728;SDS011;45588;51.598;5.618;2022-09-28T16:15:53;2.20;;;1.52;;
59728;SDS011;45588;51.598;5.618;2022-09-28T16:18:21;2.28;;;1.40;;
59728;SDS011;45588;51.598;5.618;2022-09-28T16:20:52;2.83;;;1.60;;
59728;SDS011;45588;51.598;5.618;2022-09-28T16:23:22;3.25;;;1.48;;
59728;SDS011;45588;51.598;5.618;2022-09-28T16:25:52;1.85;;;1.30;;
59728;SDS011;45588;51.598;5.618;2022-09-28T16:29:14;1.65;;;1.40;;
59728;SDS011;45588;51.598;5.618;2022-09-28T16:36:24;2.22;;;1.40;;
59728;SDS011;45588;51.598;5.618;2022-09-28T16:38:53;1.95;;;1.20;;
59728;SDS011;45588;51.598;5.618;2022-09-28T16:41:20;0.90;;;0.90;;
59728;SDS011;45588;51.598;5.618;2022-09-28T16:43:48;2.45;;;1.50;;
59728;SDS011;45588;51.598;5.618;2022-09-28T16:46:18;2.17;;;1.77;;
59728;SDS011;45588;51.598;5.618;2022-09-28T16:48:48;1.95;;;1.48;;
59728;SDS011;45588;51.598;5.618;2022-09-28T16:51:14;2.00;;;1.40;;
59728;SDS011;45588;51.598;5.618;2022-09-28T16:53:44;2.05;;;1.48;;
59728;SDS011;45588;51.598;5.618;2022-09-28T16:56:29;2.50;;;1.50;;
59728;SDS011;45588;51.598;5.618;2022-09-28T16:58:55;1.83;;;1.60;;
59728;SDS011;45588;51.598;5.618;2022-09-28T17:01:21;3.65;;;2.08;;
59728;SDS011;45588;51.598;5.618;2022-09-28T17:03:47;4.22;;;1.88;;
59728;SDS011;45588;51.598;5.618;2022-09-28T17:06:14;3.97;;;2.40;;
59728;SDS011;45588;51.598;5.618;2022-09-28T17:08:42;3.28;;;2.60;;
59728;SDS011;45588;51.598;5.618;2022-09-28T17:11:15;3.40;;;2.60;;
59728;SDS011;45588;51.598;5.618;2022-09-28T17:13:42;3.40;;;2.95;;
59728;SDS011;45588;51.598;5.618;2022-09-28T17:16:10;3.05;;;2.20;;
59728;SDS011;45588;51.598;5.618;2022-09-28T17:18:38;3.55;;;3.25;;
59728;SDS011;45588;51.598;5.618;2022-09-28T17:21:04;3.33;;;3.13;;
59728;SDS011;45588;51.598;5.618;2022-09-28T17:23:33;3.92;;;3.45;;
59728;SDS011;45588;51.598;5.618;2022-09-28T17:25:59;4.82;;;4.35;;
59728;SDS011;45588;51.598;5.618;2022-09-28T17:28:27;5.03;;;4.53;;
59728;SDS011;45588;51.598;5.618;2022-09-28T17:30:55;3.38;;;3.10;;
59728;SDS011;45588;51.598;5.618;2022-09-28T17:33:20;4.82;;;4.43;;
59728;SDS011;45588;51.598;5.618;2022-09-28T17:35:46;5.75;;;4.20;;
59728;SDS011;45588;51.598;5.618;2022-09-28T17:38:12;4.97;;;4.22;;
59728;SDS011;45588;51.598;5.618;2022-09-28T17:40:39;11.00;;;8.88;;
59728;SDS011;45588;51.598;5.618;2022-09-28T17:43:05;13.85;;;8.40;;
59728;SDS011;45588;51.598;5.618;2022-09-28T17:45:32;21.35;;;17.05;;
59728;SDS011;45588;51.598;5.618;2022-09-28T17:48:03;15.68;;;9.07;;
59728;SDS011;45588;51.598;5.618;2022-09-28T17:50:30;18.23;;;15.45;;
59728;SDS011;45588;51.598;5.618;2022-09-28T17:52:58;17.25;;;15.55;;
59728;SDS011;45588;51.598;5.618;2022-09-28T17:55:27;19.02;;;15.93;;